Time,TemperatureF,DewpointF,PressureIn,WindDirection,WindDirectionDegrees,WindSpeedMPH,WindSpeedGustMPH,Humidity,HourlyPrecipIn,Conditions,Clouds,dailyrainin,SoftwareType,DateUTC
2013-01-28 00:09:00,67.7,63.0,29.97,WNW,290,10.0,20.0,85,0.00,,,0.01,weatherlink.com 1.10,2013-01-28 06:09:00,
2013-01-28 00:22:00,67.8,64.0,29.97,WNW,302,9.0,17.0,86,0.00,,,0.01,weatherlink.com 1.10,2013-01-28 06:22:00,
2013-01-28 00:38:00,67.8,64.0,29.97,NW,318,12.0,18.0,86,0.00,,,0.01,weatherlink.com 1.10,2013-01-28 06:38:00,
2013-01-28 00:52:00,67.7,63.0,29.97,WNW,300,11.0,20.0,86,0.00,,,0.01,weatherlink.com 1.10,2013-01-28 06:52:00,
2013-01-28 01:07:00,67.5,64.0,29.97,NW,307,11.0,18.0,87,0.00,,,0.01,weatherlink.com 1.10,2013-01-28 07:07:00,
2013-01-28 01:22:00,67.3,63.0,29.97,NW,308,14.0,19.0,87,0.00,,,0.01,weatherlink.com 1.10,2013-01-28 07:22:00,
2013-01-28 01:37:00,67.1,63.0,29.98,WNW,300,7.0,15.0,87,0.00,,,0.01,weatherlink.com 1.10,2013-01-28 07:37:00,
2013-01-28 01:53:00,66.9,63.0,29.98,NW,307,10.0,17.0,88,0.00,,,0.01,weatherlink.com 1.10,2013-01-28 07:53:00,
2013-01-28 02:08:00,66.6,63.0,29.97,NW,310,12.0,15.0,88,0.00,,,0.00,weatherlink.com 1.10,2013-01-28 08:08:00,
2013-01-28 02:23:00,66.7,63.0,29.97,WNW,293,11.0,16.0,88,0.00,,,0.00,weatherlink.com 1.10,2013-01-28 08:23:00,
2013-01-28 02:38:00,66.3,63.0,29.97,WNW,293,4.0,12.0,89,0.00,,,0.00,weatherlink.com 1.10,2013-01-28 08:38:00,
2013-01-28 02:53:00,65.9,63.0,29.97,WNW,284,9.0,13.0,90,0.00,,,0.00,weatherlink.com 1.10,2013-01-28 08:53:00,
2013-01-28 03:08:00,65.7,63.0,29.97,WNW,293,10.0,16.0,90,0.00,,,0.00,weatherlink.com 1.10,2013-01-28 09:08:00,
2013-01-28 03:23:00,65.9,63.0,29.97,WNW,300,12.0,16.0,90,0.00,,,0.00,weatherlink.com 1.10,2013-01-28 09:23:00,
2013-01-28 03:38:00,66.2,63.0,29.97,WNW,300,11.0,13.0,90,0.00,,,0.00,weatherlink.com 1.10,2013-01-28 09:38:00,
2013-01-28 03:53:00,66.8,64.0,29.97,NW,309,10.0,15.0,89,0.00,,,0.00,weatherlink.com 1.10,2013-01-28 09:53:00,
2013-01-28 04:08:00,66.9,63.0,29.97,WNW,298,10.0,15.0,88,0.00,,,0.00,weatherlink.com 1.10,2013-01-28 10:08:00,
2013-01-28 04:23:00,66.9,63.0,29.97,WNW,300,8.0,14.0,88,0.00,,,0.00,weatherlink.com 1.10,2013-01-28 10:23:00,
2013-01-28 04:38:00,67.0,63.0,29.97,WNW,300,9.0,15.0,88,0.00,,,0.00,weatherlink.com 1.10,2013-01-28 10:38:00,
2013-01-28 04:53:00,66.9,64.0,29.97,NW,307,11.0,14.0,89,0.00,,,0.00,weatherlink.com 1.10,2013-01-28 10:53:00,
2013-01-28 05:08:00,66.9,64.0,29.96,WNW,286,4.0,13.0,89,0.00,,,0.00,weatherlink.com 1.10,2013-01-28 11:08:00,
2013-01-28 05:23:00,66.6,63.0,29.96,WNW,300,6.0,13.0,88,0.00,,,0.00,weatherlink.com 1.10,2013-01-28 11:23:00,
2013-01-28 05:38:00,66.6,63.0,29.96,WNW,302,7.0,14.0,89,0.00,,,0.00,weatherlink.com 1.10,2013-01-28 11:38:00,
2013-01-28 05:53:00,66.5,63.0,29.96,WNW,293,8.0,16.0,89,0.00,,,0.00,weatherlink.com 1.10,2013-01-28 11:53:00,
2013-01-28 06:08:00,66.9,64.0,29.96,West,280,10.0,16.0,90,0.00,,,0.00,weatherlink.com 1.10,2013-01-28 12:08:00,
2013-01-28 06:23:00,66.3,63.0,29.96,WNW,294,9.0,16.0,90,0.00,,,0.00,weatherlink.com 1.10,2013-01-28 12:23:00,
2013-01-28 06:38:00,65.9,63.0,29.96,WNW,285,11.0,16.0,90,0.00,,,0.00,weatherlink.com 1.10,2013-01-28 12:38:00,
2013-01-28 06:53:00,66.0,63.0,29.97,WNW,293,9.0,16.0,91,0.00,,,0.00,weatherlink.com 1.10,2013-01-28 12:53:00,
2013-01-28 07:08:00,66.1,63.0,29.97,WNW,303,9.0,17.0,90,0.00,,,0.00,weatherlink.com 1.10,2013-01-28 13:08:00,
2013-01-28 07:23:00,66.3,63.0,29.97,WNW,293,18.0,18.0,90,0.00,,,0.00,weatherlink.com 1.10,2013-01-28 13:23:00,
2013-01-28 07:38:00,66.2,63.0,29.97,WNW,300,9.0,19.0,89,0.00,,,0.00,weatherlink.com 1.10,2013-01-28 13:38:00,
2013-01-28 07:53:00,66.4,64.0,29.97,WNW,286,11.0,20.0,90,0.00,,,0.00,weatherlink.com 1.10,2013-01-28 13:53:00,
2013-01-28 08:08:00,66.3,63.0,29.97,WNW,291,6.0,16.0,90,0.00,,,0.00,weatherlink.com 1.10,2013-01-28 14:08:00,
2013-01-28 08:23:00,66.4,63.0,29.97,WNW,302,8.0,17.0,89,0.00,,,0.00,weatherlink.com 1.10,2013-01-28 14:23:00,
2013-01-28 08:38:00,66.7,63.0,29.98,WNW,285,9.0,15.0,89,0.00,,,0.00,weatherlink.com 1.10,2013-01-28 14:38:00,
2013-01-28 08:53:00,66.3,63.0,29.98,WNW,293,13.0,19.0,90,0.00,,,0.00,weatherlink.com 1.10,2013-01-28 14:53:00,
2013-01-28 09:08:00,66.0,63.0,29.98,WNW,290,10.0,14.0,90,0.00,,,0.00,weatherlink.com 1.10,2013-01-28 15:08:00,
2013-01-28 09:23:00,65.9,63.0,29.99,WNW,286,7.0,12.0,91,0.00,,,0.00,weatherlink.com 1.10,2013-01-28 15:23:00,
2013-01-28 09:54:00,65.9,63.0,29.98,WNW,288,9.0,12.0,91,0.00,,,0.00,weatherlink.com 1.10,2013-01-28 15:54:00,
2013-01-28 10:08:00,66.2,64.0,29.98,WNW,293,6.0,12.0,91,0.00,,,0.00,weatherlink.com 1.10,2013-01-28 16:08:00,
2013-01-28 10:24:00,67.1,64.0,29.99,NW,309,5.0,14.0,89,0.00,,,0.00,weatherlink.com 1.10,2013-01-28 16:24:00,
2013-01-28 10:39:00,68.3,65.0,29.98,NW,307,6.0,13.0,88,0.00,,,0.00,weatherlink.com 1.10,2013-01-28 16:39:00,
2013-01-28 10:53:00,69.0,65.0,29.98,NW,311,7.0,16.0,86,0.00,,,0.00,weatherlink.com 1.10,2013-01-28 16:53:00,
2013-01-28 11:09:00,69.2,65.0,29.97,WNW,300,10.0,14.0,86,0.00,,,0.00,weatherlink.com 1.10,2013-01-28 17:09:00,
2013-01-28 11:23:00,69.7,65.0,29.97,WNW,300,8.0,13.0,85,0.00,,,0.00,weatherlink.com 1.10,2013-01-28 17:23:00,
2013-01-28 11:39:00,70.1,65.0,29.96,WNW,302,7.0,14.0,84,0.00,,,0.00,weatherlink.com 1.10,2013-01-28 17:39:00,
2013-01-28 11:54:00,70.5,65.0,29.95,WNW,297,12.0,16.0,83,0.00,,,0.00,weatherlink.com 1.10,2013-01-28 17:54:00,
2013-01-28 12:09:00,71.6,66.0,29.93,WNW,293,8.0,23.0,81,0.00,,,0.00,weatherlink.com 1.10,2013-01-28 18:09:00,
2013-01-28 12:24:00,72.1,66.0,29.93,NW,308,17.0,21.0,81,0.00,,,0.00,weatherlink.com 1.10,2013-01-28 18:24:00,
2013-01-28 12:39:00,72.3,66.0,29.91,WNW,298,10.0,19.0,80,0.00,,,0.00,weatherlink.com 1.10,2013-01-28 18:39:00,
2013-01-28 12:54:00,72.4,66.0,29.90,WNW,297,10.0,20.0,79,0.00,,,0.00,weatherlink.com 1.10,2013-01-28 18:54:00,
2013-01-28 13:09:00,72.6,66.0,29.89,WNW,298,13.0,21.0,79,0.00,,,0.00,weatherlink.com 1.10,2013-01-28 19:09:00,
2013-01-28 13:24:00,71.6,66.0,29.88,WNW,293,14.0,22.0,81,0.00,,,0.00,weatherlink.com 1.10,2013-01-28 19:24:00,
2013-01-28 13:39:00,71.8,66.0,29.87,WNW,300,16.0,23.0,81,0.00,,,0.00,weatherlink.com 1.10,2013-01-28 19:39:00,
2013-01-28 13:54:00,72.4,66.0,29.87,WNW,287,14.0,23.0,79,0.00,,,0.00,weatherlink.com 1.10,2013-01-28 19:54:00,
2013-01-28 14:09:00,72.4,65.0,29.86,WNW,287,19.0,23.0,78,0.00,,,0.00,weatherlink.com 1.10,2013-01-28 20:09:00,
2013-01-28 14:24:00,72.1,66.0,29.86,WNW,290,10.0,22.0,80,0.00,,,0.00,weatherlink.com 1.10,2013-01-28 20:24:00,
2013-01-28 14:39:00,72.5,66.0,29.85,WNW,290,14.0,22.0,79,0.00,,,0.00,weatherlink.com 1.10,2013-01-28 20:39:00,
2013-01-28 14:54:00,72.5,65.0,29.85,WNW,288,21.0,22.0,78,0.00,,,0.00,weatherlink.com 1.10,2013-01-28 20:54:00,
2013-01-28 15:09:00,72.2,66.0,29.84,West,273,12.0,23.0,80,0.00,,,0.00,weatherlink.com 1.10,2013-01-28 21:09:00,
2013-01-28 15:24:00,72.2,65.0,29.84,West,277,10.0,18.0,79,0.00,,,0.00,weatherlink.com 1.10,2013-01-28 21:24:00,
2013-01-28 15:39:00,72.7,66.0,29.84,West,276,13.0,19.0,79,0.00,,,0.00,weatherlink.com 1.10,2013-01-28 21:39:00,
2013-01-28 15:55:00,72.5,65.0,29.83,WNW,290,9.0,19.0,78,0.00,,,0.00,weatherlink.com 1.10,2013-01-28 21:55:00,
2013-01-28 16:09:00,73.1,66.0,29.83,WNW,295,11.0,23.0,77,0.00,,,0.00,weatherlink.com 1.10,2013-01-28 22:09:00,
2013-01-28 16:24:00,73.9,66.0,29.83,WNW,288,9.0,17.0,75,0.00,,,0.00,weatherlink.com 1.10,2013-01-28 22:24:00,
2013-01-28 16:39:00,74.2,65.0,29.82,WNW,298,9.0,15.0,74,0.00,,,0.00,weatherlink.com 1.10,2013-01-28 22:39:00,
2013-01-28 16:54:00,74.4,65.0,29.82,NW,304,10.0,16.0,73,0.00,,,0.00,weatherlink.com 1.10,2013-01-28 22:54:00,
2013-01-28 17:10:00,74.9,65.0,29.82,WNW,284,10.0,15.0,70,0.00,,,0.00,weatherlink.com 1.10,2013-01-28 23:10:00,
2013-01-28 17:24:00,74.7,64.0,29.82,WNW,283,7.0,15.0,69,0.00,,,0.00,weatherlink.com 1.10,2013-01-28 23:24:00,
2013-01-28 17:40:00,75.0,64.0,29.82,WNW,290,10.0,21.0,68,0.00,,,0.00,weatherlink.com 1.10,2013-01-28 23:40:00,
2013-01-28 17:55:00,74.8,64.0,29.82,WNW,297,7.0,19.0,68,0.00,,,0.00,weatherlink.com 1.10,2013-01-28 23:55:00,
2013-01-28 18:10:00,74.6,63.0,29.82,WNW,300,11.0,21.0,68,0.00,,,0.00,weatherlink.com 1.10,2013-01-29 00:10:00,
2013-01-28 18:25:00,74.3,63.0,29.82,WNW,300,14.0,21.0,69,0.00,,,0.00,weatherlink.com 1.10,2013-01-29 00:25:00,
2013-01-28 18:40:00,74.4,64.0,29.82,WNW,300,9.0,19.0,69,0.00,,,0.00,weatherlink.com 1.10,2013-01-29 00:40:00,
2013-01-28 18:55:00,74.1,63.0,29.83,WNW,297,14.0,20.0,69,0.00,,,0.00,weatherlink.com 1.10,2013-01-29 00:55:00,
2013-01-28 19:10:00,74.0,63.0,29.83,NW,307,7.0,19.0,69,0.00,,,0.00,weatherlink.com 1.10,2013-01-29 01:10:00,
2013-01-28 19:25:00,73.7,62.0,29.84,WNW,302,12.0,21.0,68,0.00,,,0.00,weatherlink.com 1.10,2013-01-29 01:25:00,
2013-01-28 19:40:00,73.7,62.0,29.85,NW,304,9.0,17.0,68,0.00,,,0.00,weatherlink.com 1.10,2013-01-29 01:40:00,
2013-01-28 19:55:00,73.4,63.0,29.84,WNW,283,9.0,15.0,70,0.00,,,0.00,weatherlink.com 1.10,2013-01-29 01:55:00,
2013-01-28 20:10:00,73.1,63.0,29.84,WNW,298,11.0,15.0,70,0.00,,,0.00,weatherlink.com 1.10,2013-01-29 02:10:00,
2013-01-28 20:25:00,72.6,63.0,29.84,WNW,291,13.0,13.0,71,0.00,,,0.00,weatherlink.com 1.10,2013-01-29 02:25:00,
2013-01-28 20:40:00,72.7,63.0,29.84,WNW,291,8.0,17.0,71,0.00,,,0.00,weatherlink.com 1.10,2013-01-29 02:40:00,
2013-01-28 20:55:00,72.6,63.0,29.84,NW,319,9.0,18.0,71,0.00,,,0.00,weatherlink.com 1.10,2013-01-29 02:55:00,
2013-01-28 21:10:00,72.7,62.0,29.83,WNW,290,11.0,15.0,70,0.00,,,0.00,weatherlink.com 1.10,2013-01-29 03:10:00,
2013-01-28 21:25:00,72.2,62.0,29.83,WNW,284,8.0,14.0,70,0.00,,,0.00,weatherlink.com 1.10,2013-01-29 03:25:00,
2013-01-28 21:40:00,72.0,62.0,29.83,WNW,293,7.0,19.0,71,0.00,,,0.00,weatherlink.com 1.10,2013-01-29 03:40:00,
2013-01-28 21:55:00,72.0,63.0,29.83,WNW,285,10.0,17.0,73,0.00,,,0.00,weatherlink.com 1.10,2013-01-29 03:55:00,
2013-01-28 22:10:00,71.8,63.0,29.83,WNW,286,9.0,20.0,73,0.00,,,0.00,weatherlink.com 1.10,2013-01-29 04:10:00,
2013-01-28 22:25:00,71.8,63.0,29.83,NW,307,13.0,25.0,74,0.00,,,0.00,weatherlink.com 1.10,2013-01-29 04:25:00,
2013-01-28 22:40:00,71.5,63.0,29.83,West,281,14.0,20.0,74,0.00,,,0.00,weatherlink.com 1.10,2013-01-29 04:40:00,
2013-01-28 22:55:00,71.4,63.0,29.84,WNW,285,11.0,21.0,75,0.00,,,0.00,weatherlink.com 1.10,2013-01-29 04:55:00,
2013-01-28 23:10:00,71.1,63.0,29.83,West,280,10.0,18.0,75,0.00,,,0.00,weatherlink.com 1.10,2013-01-29 05:10:00,
2013-01-28 23:25:00,70.8,63.0,29.82,WNW,297,13.0,21.0,76,0.00,,,0.00,weatherlink.com 1.10,2013-01-29 05:25:00,
2013-01-28 23:40:00,70.3,63.0,29.82,NW,312,10.0,19.0,77,0.00,,,0.00,weatherlink.com 1.10,2013-01-29 05:40:00,
2013-01-28 23:55:00,69.4,63.0,29.82,WNW,303,12.0,18.0,79,0.00,,,0.00,weatherlink.com 1.10,2013-01-29 05:55:00,